Time,TemperatureF,DewpointF,PressureIn,WindDirection,WindDirectionDegrees,WindSpeedMPH,WindSpeedGustMPH,Humidity,HourlyPrecipIn,Conditions,Clouds,dailyrainin,SoftwareType,DateUTC
2013-02-01 00:08:00,-11.4,-21.4,28.97,NW,308,5.1,7.4,57,0.00,,,0.00,WSDL version 420,2013-02-01 06:08:00,
2013-02-01 00:13:00,-11.4,-21.4,28.97,NW,323,4.0,7.4,57,0.00,,,0.00,WSDL version 420,2013-02-01 06:13:00,
2013-02-01 00:18:00,-11.4,-21.4,28.97,North,353,5.4,6.0,57,0.00,,,0.00,WSDL version 420,2013-02-01 06:18:00,
2013-02-01 00:23:00,-11.4,-21.4,28.97,North,8,5.2,7.8,57,0.00,,,0.00,WSDL version 420,2013-02-01 06:23:00,
2013-02-01 00:28:00,-11.6,-21.5,28.97,NW,304,4.6,7.8,57,0.00,,,0.00,WSDL version 420,2013-02-01 06:28:00,
2013-02-01 00:33:00,-11.6,-21.6,28.97,NW,323,3.4,8.1,57,0.00,,,0.00,WSDL version 420,2013-02-01 06:33:00,
2013-02-01 00:38:00,-11.7,-21.6,28.97,NNW,338,3.3,9.4,57,0.00,,,0.00,WSDL version 420,2013-02-01 06:38:00,
2013-02-01 00:43:00,-11.9,-21.9,28.97,NW,311,5.3,9.4,57,0.00,,,0.00,WSDL version 420,2013-02-01 06:43:00,
2013-02-01 00:48:00,-11.9,-21.9,28.97,NW,315,5.2,8.1,57,0.00,,,0.00,WSDL version 420,2013-02-01 06:48:00,
2013-02-01 00:53:00,-12.0,-21.9,28.97,NNW,338,4.4,6.0,57,0.00,,,0.00,WSDL version 420,2013-02-01 06:53:00,
2013-02-01 00:58:00,-12.0,-21.9,28.97,NW,304,4.2,6.0,57,0.00,,,0.00,WSDL version 420,2013-02-01 06:58:00,
2013-02-01 01:03:00,-12.1,-22.0,28.97,NNW,338,2.4,7.4,57,0.00,,,0.00,WSDL version 420,2013-02-01 07:03:00,
2013-02-01 01:13:00,-12.3,-22.2,28.97,NNW,338,4.7,5.8,57,0.00,,,0.00,WSDL version 420,2013-02-01 07:13:00,
2013-02-01 01:18:00,-12.3,-22.2,28.97,NW,308,5.1,9.6,57,0.00,,,0.00,WSDL version 420,2013-02-01 07:18:00,
2013-02-01 01:23:00,-12.3,-22.3,28.97,NW,309,5.5,9.6,57,0.00,,,0.00,WSDL version 420,2013-02-01 07:23:00,
2013-02-01 01:28:00,-12.5,-22.4,28.97,NNW,338,2.9,6.5,57,0.00,,,0.00,WSDL version 420,2013-02-01 07:28:00,
2013-02-01 01:33:00,-12.6,-22.5,28.97,NNW,338,3.1,4.9,57,0.00,,,0.00,WSDL version 420,2013-02-01 07:33:00,
2013-02-01 01:38:00,-12.6,-22.6,28.97,West,270,2.0,7.4,57,0.00,,,0.00,WSDL version 420,2013-02-01 07:38:00,
2013-02-01 01:48:00,-12.6,-22.6,28.97,NW,308,2.8,8.9,57,0.00,,,0.00,WSDL version 420,2013-02-01 07:48:00,
2013-02-01 01:53:00,-12.8,-22.7,28.97,WNW,300,6.8,7.4,57,0.00,,,0.00,WSDL version 420,2013-02-01 07:53:00,
2013-02-01 01:58:00,-12.8,-22.7,28.97,NNW,338,2.9,7.4,57,0.00,,,0.00,WSDL version 420,2013-02-01 07:58:00,
2013-02-01 02:08:00,-12.8,-22.7,28.97,NW,323,4.0,6.0,57,0.00,,,0.00,WSDL version 420,2013-02-01 08:08:00,
2013-02-01 02:13:00,-12.8,-22.7,28.97,NNW,329,2.1,5.8,57,0.00,,,0.00,WSDL version 420,2013-02-01 08:13:00,
2013-02-01 02:18:00,-12.9,-22.8,28.97,NNW,330,4.3,5.8,57,0.00,,,0.00,WSDL version 420,2013-02-01 08:18:00,
2013-02-01 02:23:00,-13.0,-22.9,28.97,NNW,338,3.8,4.3,57,0.00,,,0.00,WSDL version 420,2013-02-01 08:23:00,
2013-02-01 02:28:00,-13.0,-22.9,28.97,NW,308,2.8,4.3,57,0.00,,,0.00,WSDL version 420,2013-02-01 08:28:00,
2013-02-01 02:33:00,-13.0,-22.9,28.97,NNW,338,1.7,3.4,57,0.00,,,0.00,WSDL version 420,2013-02-01 08:33:00,
2013-02-01 02:38:00,-13.1,-23.0,28.97,NW,315,3.4,4.3,57,0.00,,,0.00,WSDL version 420,2013-02-01 08:38:00,
2013-02-01 02:43:00,-13.2,-23.1,28.97,NW,311,3.3,4.3,57,0.00,,,0.00,WSDL version 420,2013-02-01 08:43:00,
2013-02-01 02:48:00,-13.2,-23.1,28.97,NW,326,3.1,4.0,57,0.00,,,0.00,WSDL version 420,2013-02-01 08:48:00,
2013-02-01 02:53:00,-13.3,-23.2,28.97,NNW,338,2.0,4.3,57,0.00,,,0.00,WSDL version 420,2013-02-01 08:53:00,
2013-02-01 02:58:00,-13.3,-23.2,28.97,NNW,330,2.9,4.3,57,0.00,,,0.00,WSDL version 420,2013-02-01 08:58:00,
2013-02-01 03:08:00,-13.4,-23.3,28.97,NW,308,3.1,5.4,57,0.00,,,0.00,WSDL version 420,2013-02-01 09:08:00,
2013-02-01 03:13:00,-13.5,-23.3,28.97,NNW,329,2.3,5.4,57,0.00,,,0.00,WSDL version 420,2013-02-01 09:13:00,
2013-02-01 03:18:00,-13.4,-23.3,28.97,NNW,338,3.6,3.8,57,0.00,,,0.00,WSDL version 420,2013-02-01 09:18:00,
2013-02-01 03:27:00,-13.5,-23.3,28.97,NNW,330,4.4,4.7,57,0.00,,,0.00,WSDL version 420,2013-02-01 09:27:00,
2013-02-01 03:36:00,-13.7,-23.5,28.97,West,279,3.0,4.3,57,0.00,,,0.00,WSDL version 420,2013-02-01 09:36:00,
2013-02-01 03:41:00,-13.6,-23.5,28.97,WNW,293,4.0,4.3,57,0.00,,,0.00,WSDL version 420,2013-02-01 09:41:00,
2013-02-01 03:46:00,-13.7,-23.6,28.97,WNW,293,5.8,6.3,57,0.00,,,0.00,WSDL version 420,2013-02-01 09:46:00,
2013-02-01 03:51:00,-13.7,-23.6,28.97,NW,323,3.8,6.3,57,0.00,,,0.00,WSDL version 420,2013-02-01 09:51:00,
2013-02-01 03:56:00,-13.8,-23.7,28.97,NW,323,4.5,5.8,57,0.00,,,0.00,WSDL version 420,2013-02-01 09:56:00,
2013-02-01 04:01:00,-13.9,-23.8,28.97,NW,323,4.5,4.9,57,0.00,,,0.00,WSDL version 420,2013-02-01 10:01:00,
2013-02-01 04:06:00,-14.1,-23.9,28.97,NW,315,4.3,5.4,57,0.00,,,0.00,WSDL version 420,2013-02-01 10:06:00,
2013-02-01 04:11:00,-14.1,-23.9,28.97,West,281,2.1,5.4,57,0.00,,,0.00,WSDL version 420,2013-02-01 10:11:00,
2013-02-01 04:16:00,-14.3,-24.1,28.97,West,270,3.1,4.9,57,0.00,,,0.00,WSDL version 420,2013-02-01 10:16:00,
2013-02-01 04:21:00,-14.3,-24.1,28.97,NW,308,4.2,4.9,57,0.00,,,0.00,WSDL version 420,2013-02-01 10:21:00,
2013-02-01 04:26:00,-14.4,-24.3,28.97,WNW,293,4.0,5.4,57,0.00,,,0.00,WSDL version 420,2013-02-01 10:26:00,
2013-02-01 04:31:00,-14.4,-24.3,28.97,WNW,293,4.4,5.4,57,0.00,,,0.00,WSDL version 420,2013-02-01 10:31:00,
2013-02-01 04:36:00,-14.4,-24.3,28.97,NW,306,3.9,4.9,57,0.00,,,0.00,WSDL version 420,2013-02-01 10:36:00,
2013-02-01 04:41:00,-14.4,-24.3,28.97,WNW,293,4.0,4.7,57,0.00,,,0.00,WSDL version 420,2013-02-01 10:41:00,
2013-02-01 04:46:00,-14.6,-24.5,28.97,WNW,287,3.6,6.0,57,0.00,,,0.00,WSDL version 420,2013-02-01 10:46:00,
2013-02-01 04:51:00,-14.7,-24.5,28.97,WNW,285,3.9,6.0,57,0.00,,,0.00,WSDL version 420,2013-02-01 10:51:00,
2013-02-01 04:56:00,-14.8,-24.6,28.97,WNW,293,3.9,4.7,57,0.00,,,0.00,WSDL version 420,2013-02-01 10:56:00,
2013-02-01 05:01:00,-14.8,-24.6,28.97,NW,315,4.2,5.4,57,0.00,,,0.00,WSDL version 420,2013-02-01 11:01:00,
2013-02-01 05:06:00,-14.9,-24.7,28.97,WNW,293,4.5,5.4,57,0.00,,,0.00,WSDL version 420,2013-02-01 11:06:00,
2013-02-01 05:11:00,-15.0,-24.8,28.97,WNW,293,4.1,4.9,57,0.00,,,0.00,WSDL version 420,2013-02-01 11:11:00,
2013-02-01 05:16:00,-15.0,-24.8,28.97,West,278,3.4,5.6,57,0.00,,,0.00,WSDL version 420,2013-02-01 11:16:00,
2013-02-01 05:21:00,-15.0,-24.9,28.97,West,264,4.3,6.3,57,0.00,,,0.00,WSDL version 420,2013-02-01 11:21:00,
2013-02-01 05:26:00,-15.2,-25.0,28.97,WNW,293,3.1,6.3,57,0.00,,,0.00,WSDL version 420,2013-02-01 11:26:00,
2013-02-01 05:31:00,-15.2,-25.0,28.97,WNW,293,3.4,4.7,57,0.00,,,0.00,WSDL version 420,2013-02-01 11:31:00,
2013-02-01 05:36:00,-15.3,-25.1,28.97,West,278,3.9,4.0,57,0.00,,,0.00,WSDL version 420,2013-02-01 11:36:00,
2013-02-01 05:41:00,-15.2,-25.0,28.97,WNW,300,4.1,4.3,57,0.00,,,0.00,WSDL version 420,2013-02-01 11:41:00,
2013-02-01 05:46:00,-15.3,-25.1,28.97,West,263,3.9,6.0,57,0.00,,,0.00,WSDL version 420,2013-02-01 11:46:00,
2013-02-01 05:51:00,-15.3,-25.1,28.97,WNW,287,4.8,6.0,57,0.00,,,0.00,WSDL version 420,2013-02-01 11:51:00,
2013-02-01 05:56:00,-15.5,-25.3,28.97,WNW,293,3.8,5.4,57,0.00,,,0.00,WSDL version 420,2013-02-01 11:56:00,
2013-02-01 06:01:00,-15.5,-25.3,28.97,West,270,5.5,5.8,57,0.00,,,0.00,WSDL version 420,2013-02-01 12:01:00,
2013-02-01 06:06:00,-15.6,-25.4,28.97,NW,308,3.4,5.8,57,0.00,,,0.00,WSDL version 420,2013-02-01 12:06:00,
2013-02-01 06:11:00,-15.6,-25.4,28.97,WNW,298,2.9,5.8,57,0.00,,,0.00,WSDL version 420,2013-02-01 12:11:00,
2013-02-01 06:16:00,-15.7,-25.5,28.97,WNW,302,4.3,5.8,57,0.00,,,0.00,WSDL version 420,2013-02-01 12:16:00,
2013-02-01 06:21:00,-15.7,-25.5,28.97,WNW,293,4.5,5.8,57,0.00,,,0.00,WSDL version 420,2013-02-01 12:21:00,
2013-02-01 06:26:00,-15.7,-25.5,28.97,NW,308,4.5,5.4,57,0.00,,,0.00,WSDL version 420,2013-02-01 12:26:00,
2013-02-01 06:31:00,-15.7,-25.5,28.97,WNW,293,3.2,5.4,57,0.00,,,0.00,WSDL version 420,2013-02-01 12:31:00,
2013-02-01 06:36:00,-15.7,-25.5,28.97,West,270,4.1,5.6,57,0.00,,,0.00,WSDL version 420,2013-02-01 12:36:00,
2013-02-01 06:41:00,-15.7,-25.5,28.97,NW,308,3.1,5.6,57,0.00,,,0.00,WSDL version 420,2013-02-01 12:41:00,
2013-02-01 06:46:00,-15.8,-25.6,28.97,WNW,287,2.6,4.0,57,0.00,,,0.00,WSDL version 420,2013-02-01 12:46:00,
2013-02-01 06:51:00,-15.7,-25.5,28.97,West,278,3.5,3.6,57,0.00,,,0.00,WSDL version 420,2013-02-01 12:51:00,
2013-02-01 06:56:00,-15.7,-25.5,28.97,WNW,285,3.3,3.6,57,0.00,,,0.00,WSDL version 420,2013-02-01 12:56:00,
2013-02-01 07:01:00,-15.7,-25.5,28.97,North,353,0.6,3.6,57,0.00,,,0.00,WSDL version 420,2013-02-01 13:01:00,
2013-02-01 07:06:00,-15.7,-25.5,28.97,NW,308,1.0,2.5,57,0.00,,,0.00,WSDL version 420,2013-02-01 13:06:00,
2013-02-01 07:11:00,-15.7,-25.5,28.97,NW,308,0.0,2.2,57,0.00,,,0.00,WSDL version 420,2013-02-01 13:11:00,
2013-02-01 07:16:00,-15.8,-25.6,28.97,WNW,293,1.7,2.5,57,0.00,,,0.00,WSDL version 420,2013-02-01 13:16:00,
2013-02-01 07:21:00,-15.7,-25.5,28.97,WNW,293,2.2,3.8,57,0.00,,,0.00,WSDL version 420,2013-02-01 13:21:00,
2013-02-01 07:26:00,-15.5,-25.3,28.97,West,270,1.4,3.8,57,0.00,,,0.00,WSDL version 420,2013-02-01 13:26:00,
2013-02-01 07:31:00,-15.3,-25.1,28.97,West,276,1.3,2.5,57,0.00,,,0.00,WSDL version 420,2013-02-01 13:31:00,
2013-02-01 07:36:00,-15.3,-25.1,28.97,WSW,248,0.0,2.2,57,0.00,,,0.00,WSDL version 420,2013-02-01 13:36:00,
2013-02-01 07:41:00,-15.3,-25.1,28.97,WSW,248,1.9,2.2,57,0.00,,,0.00,WSDL version 420,2013-02-01 13:41:00,
2013-02-01 07:46:00,-15.3,-25.1,28.97,West,270,1.6,2.2,57,0.00,,,0.00,WSDL version 420,2013-02-01 13:46:00,
2013-02-01 07:51:00,-15.3,-25.1,28.97,WSW,248,2.2,2.2,57,0.00,,,0.00,WSDL version 420,2013-02-01 13:51:00,
2013-02-01 07:56:00,-15.2,-25.0,28.97,WSW,253,2.3,2.7,57,0.00,,,0.00,WSDL version 420,2013-02-01 13:56:00,
2013-02-01 08:01:00,-15.2,-25.0,28.97,West,263,2.2,2.9,57,0.00,,,0.00,WSDL version 420,2013-02-01 14:01:00,
2013-02-01 08:06:00,-15.2,-25.0,28.97,West,270,1.1,2.9,57,0.00,,,0.00,WSDL version 420,2013-02-01 14:06:00,
2013-02-01 08:16:00,-14.8,-24.6,28.94,SW,234,1.7,2.5,57,0.00,,,0.00,WSDL version 420,2013-02-01 14:16:00,
2013-02-01 08:26:00,-14.6,-24.4,28.94,SW,225,1.2,2.5,57,0.00,,,0.00,WSDL version 420,2013-02-01 14:26:00,
2013-02-01 08:31:00,-14.4,-24.3,28.94,SW,225,2.5,2.5,57,0.00,,,0.00,WSDL version 420,2013-02-01 14:31:00,
2013-02-01 08:36:00,-14.3,-24.1,28.94,WNW,285,3.2,3.8,57,0.00,,,0.00,WSDL version 420,2013-02-01 14:36:00,
2013-02-01 08:41:00,-14.0,-23.9,28.94,West,270,2.5,3.8,57,0.00,,,0.00,WSDL version 420,2013-02-01 14:41:00,
2013-02-01 08:46:00,-13.7,-23.6,28.94,NW,320,2.8,4.0,57,0.00,,,0.00,WSDL version 420,2013-02-01 14:46:00,
2013-02-01 08:51:00,-13.7,-23.5,28.94,WNW,298,2.5,4.0,57,0.00,,,0.00,WSDL version 420,2013-02-01 14:51:00,
2013-02-01 08:56:00,-13.4,-23.3,28.94,West,281,3.1,4.3,57,0.00,,,0.00,WSDL version 420,2013-02-01 14:56:00,
2013-02-01 09:01:00,-13.2,-23.1,28.94,WSW,248,2.5,4.3,57,0.00,,,0.00,WSDL version 420,2013-02-01 15:01:00,
2013-02-01 09:06:00,-12.9,-22.8,28.94,West,263,0.5,3.4,57,0.00,,,0.00,WSDL version 420,2013-02-01 15:06:00,
2013-02-01 09:11:00,-12.7,-22.6,28.94,NW,315,0.0,3.4,57,0.00,,,0.00,WSDL version 420,2013-02-01 15:11:00,
2013-02-01 09:16:00,-12.5,-22.4,28.94,WNW,287,2.6,2.9,57,0.00,,,0.00,WSDL version 420,2013-02-01 15:16:00,
2013-02-01 09:21:00,-12.3,-22.2,28.94,SW,233,2.5,2.9,57,0.00,,,0.00,WSDL version 420,2013-02-01 15:21:00,
2013-02-01 09:26:00,-12.0,-22.0,28.94,NW,308,1.4,2.9,57,0.00,,,0.00,WSDL version 420,2013-02-01 15:26:00,
2013-02-01 09:31:00,-11.9,-21.9,28.94,NNW,330,1.4,2.7,57,0.00,,,0.00,WSDL version 420,2013-02-01 15:31:00,
2013-02-01 09:36:00,-11.6,-21.6,28.94,NW,315,2.2,3.6,57,0.00,,,0.00,WSDL version 420,2013-02-01 15:36:00,
2013-02-01 09:41:00,-11.3,-21.3,28.94,NW,315,1.9,3.6,57,0.00,,,0.00,WSDL version 420,2013-02-01 15:41:00,
2013-02-01 09:46:00,-11.2,-21.2,28.94,NNE,23,1.3,2.7,57,0.00,,,0.00,WSDL version 420,2013-02-01 15:46:00,
2013-02-01 09:51:00,-11.0,-21.0,28.94,WSW,248,1.6,2.7,57,0.00,,,0.00,WSDL version 420,2013-02-01 15:51:00,
2013-02-01 09:56:00,-10.5,-20.6,28.94,WNW,300,1.3,2.2,57,0.00,,,0.00,WSDL version 420,2013-02-01 15:56:00,
2013-02-01 10:01:00,-10.4,-20.4,28.94,SW,225,2.4,3.1,57,0.00,,,0.00,WSDL version 420,2013-02-01 16:01:00,
2013-02-01 10:06:00,-10.0,-20.0,28.94,WSW,248,0.6,3.8,57,0.00,,,0.00,WSDL version 420,2013-02-01 16:06:00,
2013-02-01 10:11:00,-9.8,-19.8,28.91,SW,231,1.6,3.8,57,0.00,,,0.00,WSDL version 420,2013-02-01 16:11:00,
2013-02-01 10:16:00,-9.6,-19.6,28.91,SW,233,2.7,3.4,57,0.00,,,0.00,WSDL version 420,2013-02-01 16:16:00,
2013-02-01 10:21:00,-9.2,-19.3,28.91,SW,218,3.4,3.4,57,0.00,,,0.00,WSDL version 420,2013-02-01 16:21:00,
2013-02-01 10:26:00,-8.9,-19.0,28.94,WSW,240,2.8,3.6,57,0.00,,,0.00,WSDL version 420,2013-02-01 16:26:00,
2013-02-01 10:31:00,-8.7,-18.8,28.94,SW,225,0.5,3.6,57,0.00,,,0.00,WSDL version 420,2013-02-01 16:31:00,
2013-02-01 10:36:00,-8.5,-18.6,28.94,West,270,1.0,3.6,57,0.00,,,0.00,WSDL version 420,2013-02-01 16:36:00,
2013-02-01 10:41:00,-8.0,-18.1,28.91,WSW,248,2.1,3.6,57,0.00,,,0.00,WSDL version 420,2013-02-01 16:41:00,
2013-02-01 10:46:00,-8.0,-18.1,28.91,SSW,203,2.7,3.6,57,0.00,,,0.00,WSDL version 420,2013-02-01 16:46:00,
2013-02-01 10:51:00,-7.7,-17.8,28.91,South,173,1.6,3.6,57,0.00,,,0.00,WSDL version 420,2013-02-01 16:51:00,
2013-02-01 10:56:00,-7.3,-17.5,28.94,SSW,210,2.1,2.9,57,0.00,,,0.00,WSDL version 420,2013-02-01 16:56:00,
2013-02-01 11:01:00,-7.1,-17.2,28.94,South,173,2.8,2.9,57,0.00,,,0.00,WSDL version 420,2013-02-01 17:01:00,
2013-02-01 11:06:00,-6.8,-17.0,28.94,SSW,195,2.5,3.6,57,0.00,,,0.00,WSDL version 420,2013-02-01 17:06:00,
2013-02-01 11:11:00,-6.4,-16.6,28.94,SSW,203,2.6,3.6,57,0.00,,,0.00,WSDL version 420,2013-02-01 17:11:00,
2013-02-01 11:16:00,-6.2,-16.4,28.94,South,180,2.3,3.6,57,0.00,,,0.00,WSDL version 420,2013-02-01 17:16:00,
2013-02-01 11:21:00,-5.9,-16.1,28.94,WSW,240,4.0,4.3,57,0.00,,,0.00,WSDL version 420,2013-02-01 17:21:00,
2013-02-01 11:26:00,-5.7,-15.9,28.91,West,259,2.2,5.6,57,0.00,,,0.00,WSDL version 420,2013-02-01 17:26:00,
2013-02-01 11:31:00,-5.2,-15.5,28.91,WSW,248,3.1,5.6,57,0.00,,,0.00,WSDL version 420,2013-02-01 17:31:00,
2013-02-01 11:36:00,-5.0,-15.3,28.91,SW,218,3.5,4.0,57,0.00,,,0.00,WSDL version 420,2013-02-01 17:36:00,
2013-02-01 11:41:00,-4.7,-15.0,28.91,SSW,197,3.0,4.7,57,0.00,,,0.00,WSDL version 420,2013-02-01 17:41:00,
2013-02-01 11:46:00,-4.3,-14.6,28.91,SSE,165,3.5,4.7,57,0.00,,,0.00,WSDL version 420,2013-02-01 17:46:00,
2013-02-01 11:51:00,-3.6,-14.0,28.91,SSW,208,3.2,5.4,57,0.00,,,0.00,WSDL version 420,2013-02-01 17:51:00,
2013-02-01 11:56:00,-3.2,-13.6,28.91,WNW,293,2.8,5.4,57,0.00,,,0.00,WSDL version 420,2013-02-01 17:56:00,
2013-02-01 12:01:00,-3.0,-13.4,28.91,WSW,248,2.2,4.0,57,0.00,,,0.00,WSDL version 420,2013-02-01 18:01:00,
2013-02-01 12:06:00,-2.7,-13.0,28.91,West,263,4.6,5.4,57,0.00,,,0.00,WSDL version 420,2013-02-01 18:06:00,
2013-02-01 12:11:00,-2.4,-12.8,28.88,WSW,248,3.6,5.4,57,0.00,,,0.00,WSDL version 420,2013-02-01 18:11:00,
2013-02-01 12:16:00,-2.1,-12.5,28.88,West,270,5.1,6.3,57,0.00,,,0.00,WSDL version 420,2013-02-01 18:16:00,
2013-02-01 12:21:00,-1.8,-12.2,28.88,West,259,2.3,7.4,57,0.00,,,0.00,WSDL version 420,2013-02-01 18:21:00,
2013-02-01 12:26:00,-1.4,-11.8,28.88,SW,233,2.5,7.4,57,0.00,,,0.00,WSDL version 420,2013-02-01 18:26:00,
2013-02-01 12:31:00,-1.2,-11.7,28.88,SW,225,3.1,4.7,57,0.00,,,0.00,WSDL version 420,2013-02-01 18:31:00,
2013-02-01 12:36:00,-1.2,-11.6,28.88,SSW,203,4.0,4.0,57,0.00,,,0.00,WSDL version 420,2013-02-01 18:36:00,
2013-02-01 12:41:00,-1.4,-11.8,28.88,West,266,4.4,5.6,57,0.00,,,0.00,WSDL version 420,2013-02-01 18:41:00,
2013-02-01 12:46:00,-1.7,-12.1,28.88,WSW,240,5.1,5.8,57,0.00,,,0.00,WSDL version 420,2013-02-01 18:46:00,
2013-02-01 12:51:00,-1.6,-12.0,28.88,West,263,4.4,5.8,57,0.00,,,0.00,WSDL version 420,2013-02-01 18:51:00,
2013-02-01 12:56:00,-1.4,-11.8,28.85,WNW,293,3.8,5.6,57,0.00,,,0.00,WSDL version 420,2013-02-01 18:56:00,
2013-02-01 13:01:00,-1.1,-11.6,28.85,SSE,165,2.3,4.3,57,0.00,,,0.00,WSDL version 420,2013-02-01 19:01:00,
2013-02-01 13:06:00,-0.5,-11.0,28.85,SW,233,2.2,4.9,57,0.00,,,0.00,WSDL version 420,2013-02-01 19:06:00,
2013-02-01 13:11:00,-0.7,-11.1,28.85,SSW,212,3.0,4.9,57,0.00,,,0.00,WSDL version 420,2013-02-01 19:11:00,
2013-02-01 13:16:00,-0.5,-11.0,28.85,South,174,1.8,4.9,57,0.00,,,0.00,WSDL version 420,2013-02-01 19:16:00,
2013-02-01 13:21:00,0.1,-10.4,28.85,SSW,195,3.2,4.9,57,0.00,,,0.00,WSDL version 420,2013-02-01 19:21:00,
2013-02-01 13:26:00,0.3,-10.2,28.85,West,278,2.8,4.9,57,0.00,,,0.00,WSDL version 420,2013-02-01 19:26:00,
2013-02-01 13:31:00,0.1,-10.4,28.85,WSW,240,1.7,4.9,57,0.00,,,0.00,WSDL version 420,2013-02-01 19:31:00,
2013-02-01 13:36:00,0.3,-10.2,28.85,South,180,4.0,4.9,57,0.00,,,0.00,WSDL version 420,2013-02-01 19:36:00,
2013-02-01 13:41:00,0.4,-10.1,28.85,South,186,3.5,4.3,57,0.00,,,0.00,WSDL version 420,2013-02-01 19:41:00,
2013-02-01 13:46:00,0.6,-10.0,28.85,West,270,5.8,7.2,57,0.00,,,0.00,WSDL version 420,2013-02-01 19:46:00,
2013-02-01 13:51:00,0.3,-10.2,28.85,SW,218,5.0,7.2,57,0.00,,,0.00,WSDL version 420,2013-02-01 19:51:00,
2013-02-01 13:56:00,0.3,-10.2,28.85,WSW,240,3.4,5.8,57,0.00,,,0.00,WSDL version 420,2013-02-01 19:56:00,
2013-02-01 14:01:00,0.3,-10.2,28.85,WSW,248,2.9,5.8,57,0.00,,,0.00,WSDL version 420,2013-02-01 20:01:00,
2013-02-01 14:06:00,0.5,-10.0,28.85,West,270,4.3,5.6,57,0.00,,,0.00,WSDL version 420,2013-02-01 20:06:00,
2013-02-01 14:11:00,0.6,-9.9,28.85,SW,233,3.7,5.6,57,0.00,,,0.00,WSDL version 420,2013-02-01 20:11:00,
2013-02-01 14:16:00,0.9,-9.6,28.85,WSW,240,4.7,5.6,57,0.00,,,0.00,WSDL version 420,2013-02-01 20:16:00,
2013-02-01 14:21:00,1.2,-9.3,28.85,WNW,285,2.7,6.3,57,0.00,,,0.00,WSDL version 420,2013-02-01 20:21:00,
2013-02-01 14:26:00,1.2,-9.3,28.85,WSW,248,3.1,7.4,57,0.00,,,0.00,WSDL version 420,2013-02-01 20:26:00,
2013-02-01 14:31:00,1.4,-9.2,28.85,SW,225,3.2,7.4,57,0.00,,,0.00,WSDL version 420,2013-02-01 20:31:00,
2013-02-01 14:36:00,1.3,-9.2,28.85,NW,315,3.3,5.4,57,0.00,,,0.00,WSDL version 420,2013-02-01 20:36:00,
2013-02-01 14:41:00,1.5,-9.1,28.82,South,180,3.1,5.4,57,0.00,,,0.00,WSDL version 420,2013-02-01 20:41:00,
2013-02-01 14:46:00,1.6,-8.9,28.82,SSW,203,2.8,3.8,57,0.00,,,0.00,WSDL version 420,2013-02-01 20:46:00,
2013-02-01 14:51:00,1.8,-8.8,28.82,SW,218,0.7,3.8,57,0.00,,,0.00,WSDL version 420,2013-02-01 20:51:00,
2013-02-01 14:56:00,1.9,-8.7,28.82,SSW,195,3.7,3.8,57,0.00,,,0.00,WSDL version 420,2013-02-01 20:56:00,
2013-02-01 15:01:00,1.7,-8.9,28.82,SW,225,0.9,4.3,57,0.00,,,0.00,WSDL version 420,2013-02-01 21:01:00,
2013-02-01 15:06:00,1.8,-8.8,28.82,South,186,1.8,4.3,57,0.00,,,0.00,WSDL version 420,2013-02-01 21:06:00,
2013-02-01 15:11:00,1.7,-8.9,28.82,SSW,210,2.5,4.5,57,0.00,,,0.00,WSDL version 420,2013-02-01 21:11:00,
2013-02-01 15:16:00,1.4,-9.2,28.82,South,188,2.0,4.5,57,0.00,,,0.00,WSDL version 420,2013-02-01 21:16:00,
2013-02-01 15:21:00,1.5,-9.1,28.82,South,180,2.8,5.4,57,0.00,,,0.00,WSDL version 420,2013-02-01 21:21:00,
2013-02-01 15:31:00,1.5,-9.0,28.82,South,180,1.6,5.8,57,0.00,,,0.00,WSDL version 420,2013-02-01 21:31:00,
2013-02-01 15:41:00,1.5,-9.0,28.82,South,173,2.8,4.0,57,0.00,,,0.00,WSDL version 420,2013-02-01 21:41:00,
2013-02-01 15:48:00,1.3,-9.2,28.82,South,180,1.4,6.5,57,0.00,,,0.00,WSDL version 420,2013-02-01 21:48:00,
2013-02-01 15:53:00,1.5,-9.1,28.82,South,173,2.9,4.3,57,0.00,,,0.00,WSDL version 420,2013-02-01 21:53:00,
2013-02-01 15:58:00,1.2,-9.3,28.82,SW,225,3.8,4.3,57,0.00,,,0.00,WSDL version 420,2013-02-01 21:58:00,
2013-02-01 16:08:00,1.1,-9.4,28.82,SSW,208,3.0,3.8,57,0.00,,,0.00,WSDL version 420,2013-02-01 22:08:00,
2013-02-01 16:13:00,0.8,-9.7,28.79,South,188,1.9,3.4,57,0.00,,,0.00,WSDL version 420,2013-02-01 22:13:00,
2013-02-01 16:18:00,1.0,-9.5,28.79,SSE,158,1.6,3.4,57,0.00,,,0.00,WSDL version 420,2013-02-01 22:18:00,
2013-02-01 16:23:00,1.2,-9.3,28.79,SSE,150,0.4,4.3,57,0.00,,,0.00,WSDL version 420,2013-02-01 22:23:00,
2013-02-01 16:28:00,1.0,-9.6,28.79,SW,218,1.7,4.9,57,0.00,,,0.00,WSDL version 420,2013-02-01 22:28:00,
2013-02-01 16:33:00,0.8,-9.8,28.79,South,173,2.6,4.9,57,0.00,,,0.00,WSDL version 420,2013-02-01 22:33:00,
2013-02-01 16:38:00,0.8,-9.8,28.79,SSE,158,3.2,5.4,57,0.00,,,0.00,WSDL version 420,2013-02-01 22:38:00,
2013-02-01 16:43:00,0.8,-9.8,28.79,SE,124,2.6,5.4,57,0.00,,,0.00,WSDL version 420,2013-02-01 22:43:00,
2013-02-01 16:48:00,0.7,-9.8,28.79,SE,128,2.2,3.8,57,0.00,,,0.00,WSDL version 420,2013-02-01 22:48:00,
2013-02-01 16:53:00,-999.0,-99.9,28.79,SE,146,2.0,3.4,-999,0.00,,,0.00,WSDL version 420,2013-02-01 22:53:00,
2013-02-01 16:58:00,0.5,-10.0,28.76,ESE,120,4.0,4.0,57,0.00,,,0.00,WSDL version 420,2013-02-01 22:58:00,
2013-02-01 17:08:00,0.5,-10.0,28.76,South,185,2.3,3.8,57,0.00,,,0.00,WSDL version 420,2013-02-01 23:08:00,
2013-02-01 17:13:00,0.3,-10.2,28.76,SW,214,2.6,3.8,57,0.00,,,0.00,WSDL version 420,2013-02-01 23:13:00,
2013-02-01 17:18:00,0.3,-10.2,28.76,South,180,0.0,3.8,57,0.00,,,0.00,WSDL version 420,2013-02-01 23:18:00,
2013-02-01 17:28:00,0.3,-10.2,28.76,South,174,0.7,3.6,57,0.00,,,0.00,WSDL version 420,2013-02-01 23:28:00,
2013-02-01 17:33:00,0.4,-10.1,28.76,South,173,4.4,4.5,57,0.00,,,0.00,WSDL version 420,2013-02-01 23:33:00,
2013-02-01 17:38:00,0.4,-10.1,28.76,SE,146,1.5,4.5,57,0.00,,,0.00,WSDL version 420,2013-02-01 23:38:00,
2013-02-01 17:43:00,0.4,-10.1,28.76,SE,135,2.7,2.7,57,0.00,,,0.00,WSDL version 420,2013-02-01 23:43:00,
2013-02-01 17:48:00,0.5,-10.0,28.76,SSE,150,2.3,2.7,57,0.00,,,0.00,WSDL version 420,2013-02-01 23:48:00,
2013-02-01 17:53:00,0.5,-10.0,28.76,SSE,150,2.4,2.9,57,0.00,,,0.00,WSDL version 420,2013-02-01 23:53:00,
2013-02-01 17:58:00,0.5,-10.0,28.76,SE,135,0.7,2.9,57,0.00,,,0.00,WSDL version 420,2013-02-01 23:58:00,
2013-02-01 18:08:00,0.5,-10.0,28.76,East,99,2.2,3.6,57,0.00,,,0.00,WSDL version 420,2013-02-02 00:08:00,
2013-02-01 18:13:00,0.5,-10.0,28.76,ESE,113,1.4,2.7,57,0.00,,,0.00,WSDL version 420,2013-02-02 00:13:00,
2013-02-01 18:18:00,0.5,-10.0,28.76,SE,143,0.9,2.7,57,0.00,,,0.00,WSDL version 420,2013-02-02 00:18:00,
2013-02-01 18:23:00,0.5,-10.0,28.76,SSE,152,0.6,3.6,57,0.00,,,0.00,WSDL version 420,2013-02-02 00:23:00,
2013-02-01 18:28:00,0.5,-10.0,28.76,SSE,150,2.7,4.3,57,0.00,,,0.00,WSDL version 420,2013-02-02 00:28:00,
2013-02-01 18:33:00,0.6,-10.0,28.76,SE,135,2.1,4.3,57,0.00,,,0.00,WSDL version 420,2013-02-02 00:33:00,
2013-02-01 18:38:00,0.7,-9.8,28.76,SE,126,3.0,4.0,57,0.00,,,0.00,WSDL version 420,2013-02-02 00:38:00,
2013-02-01 18:43:00,0.7,-9.8,28.76,SE,129,2.5,4.0,57,0.00,,,0.00,WSDL version 420,2013-02-02 00:43:00,
2013-02-01 18:48:00,0.7,-9.8,28.76,ESE,113,2.2,3.6,57,0.00,,,0.00,WSDL version 420,2013-02-02 00:48:00,
2013-02-01 18:53:00,0.7,-9.8,28.76,SE,135,1.3,3.4,57,0.00,,,0.00,WSDL version 420,2013-02-02 00:53:00,
2013-02-01 18:58:00,0.7,-9.8,28.76,ESE,120,3.1,3.4,57,0.00,,,0.00,WSDL version 420,2013-02-02 00:58:00,
2013-02-01 19:09:00,0.7,-9.8,28.76,SE,140,1.8,4.7,57,0.00,,,0.00,WSDL version 420,2013-02-02 01:09:00,
2013-02-01 19:18:00,0.9,-9.7,28.76,ESE,120,2.7,2.9,57,0.00,,,0.00,WSDL version 420,2013-02-02 01:18:00,
2013-02-01 19:23:00,0.9,-9.7,28.76,SE,135,2.0,2.9,57,0.00,,,0.00,WSDL version 420,2013-02-02 01:23:00,
2013-02-01 19:28:00,0.9,-9.7,28.76,ESE,113,0.9,2.2,57,0.00,,,0.00,WSDL version 420,2013-02-02 01:28:00,
2013-02-01 19:33:00,0.9,-9.6,28.76,SE,135,3.1,3.1,57,0.00,,,0.00,WSDL version 420,2013-02-02 01:33:00,
2013-02-01 19:38:00,0.9,-9.6,28.76,East,98,2.2,3.1,57,0.00,,,0.00,WSDL version 420,2013-02-02 01:38:00,
2013-02-01 19:48:00,1.0,-9.5,28.76,SE,135,0.0,2.5,57,0.00,,,0.00,WSDL version 420,2013-02-02 01:48:00,
2013-02-01 19:53:00,1.0,-9.6,28.76,SE,128,2.1,3.6,57,0.00,,,0.00,WSDL version 420,2013-02-02 01:53:00,
2013-02-01 19:58:00,1.0,-9.6,28.76,SE,135,2.8,3.6,57,0.00,,,0.00,WSDL version 420,2013-02-02 01:58:00,
2013-02-01 20:03:00,1.0,-9.5,28.76,ESE,113,2.3,2.9,57,0.00,,,0.00,WSDL version 420,2013-02-02 02:03:00,
2013-02-01 20:08:00,1.0,-9.5,28.76,ESE,113,1.6,3.1,57,0.00,,,0.00,WSDL version 420,2013-02-02 02:08:00,
2013-02-01 20:13:00,0.7,-9.8,28.76,ESE,105,3.4,4.3,57,0.00,,,0.00,WSDL version 420,2013-02-02 02:13:00,
2013-02-01 20:18:00,0.7,-9.8,28.76,SE,128,2.5,4.3,57,0.00,,,0.00,WSDL version 420,2013-02-02 02:18:00,
2013-02-01 20:23:00,0.9,-9.7,28.76,SE,128,2.2,4.0,57,0.00,,,0.00,WSDL version 420,2013-02-02 02:23:00,
2013-02-01 20:28:00,0.8,-9.7,28.76,ESE,120,2.5,4.0,57,0.00,,,0.00,WSDL version 420,2013-02-02 02:28:00,
2013-02-01 20:33:00,0.7,-9.8,28.76,SE,135,3.2,4.0,57,0.00,,,0.00,WSDL version 420,2013-02-02 02:33:00,
2013-02-01 20:38:00,0.7,-9.8,28.76,SE,128,3.9,4.0,57,0.00,,,0.00,WSDL version 420,2013-02-02 02:38:00,
2013-02-01 20:43:00,0.7,-9.8,28.76,SE,128,1.9,4.0,57,0.00,,,0.00,WSDL version 420,2013-02-02 02:43:00,
2013-02-01 20:48:00,0.7,-9.8,28.76,ESE,113,2.2,3.4,57,0.00,,,0.00,WSDL version 420,2013-02-02 02:48:00,
2013-02-01 20:53:00,0.9,-9.7,28.76,East,90,1.9,3.4,57,0.00,,,0.00,WSDL version 420,2013-02-02 02:53:00,
2013-02-01 20:58:00,0.7,-9.8,28.76,ESE,107,2.1,3.6,57,0.00,,,0.00,WSDL version 420,2013-02-02 02:58:00,
2013-02-01 21:04:00,0.6,-9.9,28.76,East,96,3.5,4.0,57,0.00,,,0.00,WSDL version 420,2013-02-02 03:04:00,
2013-02-01 21:13:00,0.7,-9.8,28.76,East,98,3.1,4.9,57,0.00,,,0.00,WSDL version 420,2013-02-02 03:13:00,
2013-02-01 21:18:00,0.7,-9.8,28.76,East,101,3.0,5.8,57,0.00,,,0.00,WSDL version 420,2013-02-02 03:18:00,
2013-02-01 21:28:00,1.0,-9.6,28.73,ESE,113,1.4,2.5,57,0.00,,,0.00,WSDL version 420,2013-02-02 03:28:00,
2013-02-01 21:33:00,1.0,-9.5,28.73,ENE,73,3.4,3.8,57,0.00,,,0.00,WSDL version 420,2013-02-02 03:33:00,
2013-02-01 21:38:00,0.9,-9.7,28.73,East,83,2.0,3.8,57,0.00,,,0.00,WSDL version 420,2013-02-02 03:38:00,
2013-02-01 21:43:00,1.0,-9.6,28.76,East,98,3.4,4.0,57,0.00,,,0.00,WSDL version 420,2013-02-02 03:43:00,
2013-02-01 21:53:00,0.9,-9.7,28.76,ESE,113,1.8,3.4,57,0.00,,,0.00,WSDL version 420,2013-02-02 03:53:00,
2013-02-01 21:58:00,0.9,-9.6,28.76,East,98,1.9,4.0,57,0.00,,,0.00,WSDL version 420,2013-02-02 03:58:00,
2013-02-01 22:08:00,0.9,-9.6,28.76,East,90,3.4,4.7,57,0.00,,,0.00,WSDL version 420,2013-02-02 04:08:00,
2013-02-01 22:13:00,1.0,-9.5,28.76,East,90,1.3,4.7,57,0.00,,,0.00,WSDL version 420,2013-02-02 04:13:00,
2013-02-01 22:18:00,1.1,-9.4,28.76,East,90,1.6,4.0,57,0.00,,,0.00,WSDL version 420,2013-02-02 04:18:00,
2013-02-01 22:23:00,1.2,-9.3,28.76,ENE,68,0.9,4.0,57,0.00,,,0.00,WSDL version 420,2013-02-02 04:23:00,
2013-02-01 22:28:00,0.9,-9.6,28.76,ENE,60,0.0,3.4,57,0.00,,,0.00,WSDL version 420,2013-02-02 04:28:00,
2013-02-01 22:33:00,1.2,-9.4,28.76,ESE,104,1.2,3.4,57,0.00,,,0.00,WSDL version 420,2013-02-02 04:33:00,
2013-02-01 22:38:00,1.2,-9.3,28.76,East,90,2.5,3.1,57,0.00,,,0.00,WSDL version 420,2013-02-02 04:38:00,
2013-02-01 22:43:00,1.2,-9.3,28.76,ENE,68,0.5,2.7,57,0.00,,,0.00,WSDL version 420,2013-02-02 04:43:00,
2013-02-01 22:48:00,1.2,-9.3,28.76,ESE,113,1.0,1.6,57,0.00,,,0.00,WSDL version 420,2013-02-02 04:48:00,
2013-02-01 22:53:00,1.4,-9.2,28.76,ESE,113,0.9,3.4,57,0.00,,,0.00,WSDL version 420,2013-02-02 04:53:00,
2013-02-01 22:58:00,1.3,-9.2,28.76,ESE,113,1.6,3.4,57,0.00,,,0.00,WSDL version 420,2013-02-02 04:58:00,
2013-02-01 23:03:00,1.2,-9.3,28.76,ESE,108,2.5,3.4,57,0.00,,,0.00,WSDL version 420,2013-02-02 05:03:00,
2013-02-01 23:08:00,1.3,-9.3,28.76,ENE,73,3.1,3.8,57,0.00,,,0.00,WSDL version 420,2013-02-02 05:08:00,
2013-02-01 23:13:00,1.2,-9.3,28.76,ESE,105,2.1,3.8,57,0.00,,,0.00,WSDL version 420,2013-02-02 05:13:00,
2013-02-01 23:18:00,1.3,-9.2,28.76,ESE,113,0.7,3.4,57,0.00,,,0.00,WSDL version 420,2013-02-02 05:18:00,
2013-02-01 23:23:00,1.5,-9.1,28.76,ENE,68,3.2,3.6,57,0.00,,,0.00,WSDL version 420,2013-02-02 05:23:00,
2013-02-01 23:28:00,1.4,-9.2,28.76,East,98,0.6,3.6,57,0.00,,,0.00,WSDL version 420,2013-02-02 05:28:00,
2013-02-01 23:33:00,1.4,-9.2,28.76,East,96,4.0,4.7,57,0.00,,,0.00,WSDL version 420,2013-02-02 05:33:00,
2013-02-01 23:38:00,1.3,-9.3,28.76,ESE,107,1.7,4.7,57,0.00,,,0.00,WSDL version 420,2013-02-02 05:38:00,
2013-02-01 23:43:00,1.4,-9.2,28.76,ESE,113,0.5,2.7,57,0.00,,,0.00,WSDL version 420,2013-02-02 05:43:00,
2013-02-01 23:48:00,1.3,-9.2,28.76,NNE,23,1.0,2.0,57,0.00,,,0.00,WSDL version 420,2013-02-02 05:48:00,
2013-02-01 23:53:00,1.3,-9.2,28.76,NE,53,2.2,3.6,57,0.00,,,0.00,WSDL version 420,2013-02-02 05:53:00,
2013-02-01 23:58:00,1.3,-9.2,28.76,ENE,68,3.6,3.6,57,0.00,,,0.00,WSDL version 420,2013-02-02 05:58:00,